sensor_id;sensor_type;location;lat;lon;timestamp;P1;durP1;ratioP1;P2;durP2;ratioP2
67757;SDS011;54562;47.620;18.786;2022-11-21T00:02:16;36.50;;;17.60;;
67757;SDS011;54562;47.620;18.786;2022-11-21T00:05:25;30.50;;;15.10;;
67757;SDS011;54562;47.620;18.786;2022-11-21T00:08:35;33.50;;;15.60;;
67757;SDS011;54562;47.620;18.786;2022-11-21T00:11:44;34.50;;;16.10;;
67757;SDS011;54562;47.620;18.786;2022-11-21T00:14:52;33.40;;;15.80;;
67757;SDS011;54562;47.620;18.786;2022-11-21T00:18:02;40.70;;;17.90;;
67757;SDS011;54562;47.620;18.786;2022-11-21T00:21:13;36.00;;;16.90;;
67757;SDS011;54562;47.620;18.786;2022-11-21T00:24:22;31.00;;;15.20;;
67757;SDS011;54562;47.620;18.786;2022-11-21T00:27:31;39.00;;;18.10;;
67757;SDS011;54562;47.620;18.786;2022-11-21T00:30:39;37.10;;;17.10;;
67757;SDS011;54562;47.620;18.786;2022-11-21T00:33:48;40.20;;;18.40;;
67757;SDS011;54562;47.620;18.786;2022-11-21T00:36:56;39.60;;;17.70;;
67757;SDS011;54562;47.620;18.786;2022-11-21T00:40:06;39.80;;;16.90;;
67757;SDS011;54562;47.620;18.786;2022-11-21T00:43:15;33.60;;;15.80;;
67757;SDS011;54562;47.620;18.786;2022-11-21T00:46:23;31.80;;;15.30;;
67757;SDS011;54562;47.620;18.786;2022-11-21T00:49:31;32.60;;;14.60;;
67757;SDS011;54562;47.620;18.786;2022-11-21T00:52:40;34.20;;;15.50;;
67757;SDS011;54562;47.620;18.786;2022-11-21T00:55:51;38.90;;;16.90;;
67757;SDS011;54562;47.620;18.786;2022-11-21T00:58:59;35.60;;;17.70;;
67757;SDS011;54562;47.620;18.786;2022-11-21T01:02:10;39.90;;;18.40;;
67757;SDS011;54562;47.620;18.786;2022-11-21T01:05:20;40.40;;;16.60;;
67757;SDS011;54562;47.620;18.786;2022-11-21T01:08:28;41.00;;;17.60;;
67757;SDS011;54562;47.620;18.786;2022-11-21T01:11:37;29.20;;;14.10;;
67757;SDS011;54562;47.620;18.786;2022-11-21T01:14:45;36.40;;;16.50;;
67757;SDS011;54562;47.620;18.786;2022-11-21T01:17:52;35.70;;;15.80;;
67757;SDS011;54562;47.620;18.786;2022-11-21T01:21:02;38.80;;;17.50;;
67757;SDS011;54562;47.620;18.786;2022-11-21T01:24:12;42.40;;;17.90;;
67757;SDS011;54562;47.620;18.786;2022-11-21T01:27:20;43.90;;;19.50;;
67757;SDS011;54562;47.620;18.786;2022-11-21T01:30:28;47.70;;;20.30;;
67757;SDS011;54562;47.620;18.786;2022-11-21T01:33:36;41.50;;;18.70;;
67757;SDS011;54562;47.620;18.786;2022-11-21T01:36:45;42.90;;;18.10;;
67757;SDS011;54562;47.620;18.786;2022-11-21T01:39:53;46.10;;;19.40;;
67757;SDS011;54562;47.620;18.786;2022-11-21T01:43:12;41.70;;;18.00;;
67757;SDS011;54562;47.620;18.786;2022-11-21T01:46:21;37.30;;;16.70;;
67757;SDS011;54562;47.620;18.786;2022-11-21T01:49:32;34.10;;;15.10;;
67757;SDS011;54562;47.620;18.786;2022-11-21T01:55:47;29.60;;;12.30;;
67757;SDS011;54562;47.620;18.786;2022-11-21T01:58:58;30.20;;;14.30;;
67757;SDS011;54562;47.620;18.786;2022-11-21T02:02:09;32.60;;;15.80;;
67757;SDS011;54562;47.620;18.786;2022-11-21T02:05:22;33.00;;;15.10;;
67757;SDS011;54562;47.620;18.786;2022-11-21T02:08:33;35.60;;;16.90;;
67757;SDS011;54562;47.620;18.786;2022-11-21T02:11:44;35.60;;;16.60;;
67757;SDS011;54562;47.620;18.786;2022-11-21T02:14:56;36.60;;;16.40;;
67757;SDS011;54562;47.620;18.786;2022-11-21T02:18:09;39.20;;;18.40;;
67757;SDS011;54562;47.620;18.786;2022-11-21T02:21:22;39.00;;;18.20;;
67757;SDS011;54562;47.620;18.786;2022-11-21T02:24:42;37.70;;;17.30;;
67757;SDS011;54562;47.620;18.786;2022-11-21T02:28:00;33.20;;;14.50;;
67757;SDS011;54562;47.620;18.786;2022-11-21T02:31:10;40.20;;;16.90;;
67757;SDS011;54562;47.620;18.786;2022-11-21T02:34:18;35.90;;;17.40;;
67757;SDS011;54562;47.620;18.786;2022-11-21T02:37:26;39.30;;;16.50;;
67757;SDS011;54562;47.620;18.786;2022-11-21T02:43:52;30.50;;;14.20;;
67757;SDS011;54562;47.620;18.786;2022-11-21T02:47:04;38.30;;;17.40;;
67757;SDS011;54562;47.620;18.786;2022-11-21T02:50:14;37.20;;;17.00;;
67757;SDS011;54562;47.620;18.786;2022-11-21T02:53:26;34.10;;;15.40;;
67757;SDS011;54562;47.620;18.786;2022-11-21T02:56:34;31.50;;;14.40;;
67757;SDS011;54562;47.620;18.786;2022-11-21T02:59:42;28.70;;;14.30;;
67757;SDS011;54562;47.620;18.786;2022-11-21T03:02:50;29.40;;;14.90;;
67757;SDS011;54562;47.620;18.786;2022-11-21T03:05:59;26.80;;;13.50;;
67757;SDS011;54562;47.620;18.786;2022-11-21T03:09:07;28.60;;;14.10;;
67757;SDS011;54562;47.620;18.786;2022-11-21T03:12:16;37.50;;;16.60;;
67757;SDS011;54562;47.620;18.786;2022-11-21T03:15:24;31.40;;;14.10;;
67757;SDS011;54562;47.620;18.786;2022-11-21T03:18:33;41.10;;;17.40;;
67757;SDS011;54562;47.620;18.786;2022-11-21T03:21:41;37.50;;;16.30;;
67757;SDS011;54562;47.620;18.786;2022-11-21T03:24:49;36.90;;;17.20;;
67757;SDS011;54562;47.620;18.786;2022-11-21T03:27:57;40.80;;;17.00;;
67757;SDS011;54562;47.620;18.786;2022-11-21T03:31:06;41.00;;;17.10;;
67757;SDS011;54562;47.620;18.786;2022-11-21T03:34:14;32.10;;;15.40;;
67757;SDS011;54562;47.620;18.786;2022-11-21T03:37:22;33.70;;;15.80;;
67757;SDS011;54562;47.620;18.786;2022-11-21T03:40:30;27.50;;;13.10;;
67757;SDS011;54562;47.620;18.786;2022-11-21T03:43:37;28.20;;;13.80;;
67757;SDS011;54562;47.620;18.786;2022-11-21T03:46:46;33.10;;;14.90;;
67757;SDS011;54562;47.620;18.786;2022-11-21T03:49:54;28.50;;;13.80;;
67757;SDS011;54562;47.620;18.786;2022-11-21T03:53:02;28.30;;;13.50;;
67757;SDS011;54562;47.620;18.786;2022-11-21T03:56:11;29.80;;;13.80;;
67757;SDS011;54562;47.620;18.786;2022-11-21T03:59:19;28.10;;;13.30;;
67757;SDS011;54562;47.620;18.786;2022-11-21T04:02:27;28.70;;;13.20;;
67757;SDS011;54562;47.620;18.786;2022-11-21T04:05:35;23.90;;;12.40;;
67757;SDS011;54562;47.620;18.786;2022-11-21T04:08:44;22.10;;;11.30;;
67757;SDS011;54562;47.620;18.786;2022-11-21T04:11:52;22.80;;;11.50;;
67757;SDS011;54562;47.620;18.786;2022-11-21T04:15:00;21.60;;;10.50;;
67757;SDS011;54562;47.620;18.786;2022-11-21T04:18:14;25.50;;;12.80;;
67757;SDS011;54562;47.620;18.786;2022-11-21T04:21:22;25.50;;;10.90;;
67757;SDS011;54562;47.620;18.786;2022-11-21T04:24:30;21.30;;;10.20;;
67757;SDS011;54562;47.620;18.786;2022-11-21T04:27:38;30.50;;;11.40;;
67757;SDS011;54562;47.620;18.786;2022-11-21T04:30:46;24.30;;;11.10;;
67757;SDS011;54562;47.620;18.786;2022-11-21T04:33:59;26.80;;;11.30;;
67757;SDS011;54562;47.620;18.786;2022-11-21T04:37:08;29.90;;;11.50;;
67757;SDS011;54562;47.620;18.786;2022-11-21T04:40:16;24.20;;;11.50;;
67757;SDS011;54562;47.620;18.786;2022-11-21T04:43:25;27.50;;;11.90;;
67757;SDS011;54562;47.620;18.786;2022-11-21T04:46:33;34.90;;;15.40;;
67757;SDS011;54562;47.620;18.786;2022-11-21T04:49:41;26.20;;;12.70;;
67757;SDS011;54562;47.620;18.786;2022-11-21T04:52:53;27.00;;;12.80;;
67757;SDS011;54562;47.620;18.786;2022-11-21T04:56:05;25.90;;;13.50;;
67757;SDS011;54562;47.620;18.786;2022-11-21T04:59:13;32.10;;;14.60;;
67757;SDS011;54562;47.620;18.786;2022-11-21T05:02:21;33.80;;;15.30;;
67757;SDS011;54562;47.620;18.786;2022-11-21T05:05:30;29.70;;;14.80;;
67757;SDS011;54562;47.620;18.786;2022-11-21T05:08:38;27.20;;;13.50;;
67757;SDS011;54562;47.620;18.786;2022-11-21T05:11:46;27.00;;;13.60;;
67757;SDS011;54562;47.620;18.786;2022-11-21T05:15:12;25.20;;;12.70;;
67757;SDS011;54562;47.620;18.786;2022-11-21T05:18:28;26.40;;;13.00;;
67757;SDS011;54562;47.620;18.786;2022-11-21T05:21:36;27.50;;;13.70;;
67757;SDS011;54562;47.620;18.786;2022-11-21T05:24:44;23.00;;;11.20;;
67757;SDS011;54562;47.620;18.786;2022-11-21T05:27:52;23.10;;;11.00;;
67757;SDS011;54562;47.620;18.786;2022-11-21T05:31:02;23.70;;;11.50;;
67757;SDS011;54562;47.620;18.786;2022-11-21T05:34:10;23.90;;;11.70;;
67757;SDS011;54562;47.620;18.786;2022-11-21T05:37:18;22.90;;;11.20;;
67757;SDS011;54562;47.620;18.786;2022-11-21T05:40:27;20.00;;;9.80;;
67757;SDS011;54562;47.620;18.786;2022-11-21T05:43:35;21.80;;;11.30;;
67757;SDS011;54562;47.620;18.786;2022-11-21T05:46:51;21.60;;;10.20;;
67757;SDS011;54562;47.620;18.786;2022-11-21T05:49:59;21.30;;;10.80;;
67757;SDS011;54562;47.620;18.786;2022-11-21T05:53:08;24.30;;;11.80;;
67757;SDS011;54562;47.620;18.786;2022-11-21T05:56:17;19.10;;;9.90;;
67757;SDS011;54562;47.620;18.786;2022-11-21T05:59:26;20.20;;;10.20;;
67757;SDS011;54562;47.620;18.786;2022-11-21T06:02:34;21.50;;;10.70;;
67757;SDS011;54562;47.620;18.786;2022-11-21T06:06:02;24.70;;;11.80;;
67757;SDS011;54562;47.620;18.786;2022-11-21T06:09:11;24.30;;;11.90;;
67757;SDS011;54562;47.620;18.786;2022-11-21T06:12:19;23.50;;;11.10;;
67757;SDS011;54562;47.620;18.786;2022-11-21T06:15:29;19.10;;;9.00;;
67757;SDS011;54562;47.620;18.786;2022-11-21T06:18:39;23.60;;;10.20;;
67757;SDS011;54562;47.620;18.786;2022-11-21T06:21:48;22.10;;;10.80;;
67757;SDS011;54562;47.620;18.786;2022-11-21T06:24:56;22.10;;;10.80;;
67757;SDS011;54562;47.620;18.786;2022-11-21T06:28:05;20.80;;;9.50;;
67757;SDS011;54562;47.620;18.786;2022-11-21T06:31:17;22.50;;;10.10;;
67757;SDS011;54562;47.620;18.786;2022-11-21T06:34:27;20.80;;;10.30;;
67757;SDS011;54562;47.620;18.786;2022-11-21T06:37:35;20.10;;;10.00;;
67757;SDS011;54562;47.620;18.786;2022-11-21T06:40:43;22.70;;;10.90;;
67757;SDS011;54562;47.620;18.786;2022-11-21T06:43:52;23.40;;;11.00;;
67757;SDS011;54562;47.620;18.786;2022-11-21T06:46:59;22.00;;;10.80;;
67757;SDS011;54562;47.620;18.786;2022-11-21T06:50:09;21.60;;;10.50;;
67757;SDS011;54562;47.620;18.786;2022-11-21T06:53:17;20.60;;;10.30;;
67757;SDS011;54562;47.620;18.786;2022-11-21T06:56:26;22.70;;;11.90;;
67757;SDS011;54562;47.620;18.786;2022-11-21T06:59:36;19.90;;;9.20;;
67757;SDS011;54562;47.620;18.786;2022-11-21T07:02:44;19.80;;;9.70;;
67757;SDS011;54562;47.620;18.786;2022-11-21T07:05:52;17.60;;;9.10;;
67757;SDS011;54562;47.620;18.786;2022-11-21T07:09:03;24.90;;;10.60;;
67757;SDS011;54562;47.620;18.786;2022-11-21T07:12:31;17.30;;;8.80;;
67757;SDS011;54562;47.620;18.786;2022-11-21T07:16:05;25.30;;;10.10;;
67757;SDS011;54562;47.620;18.786;2022-11-21T07:19:18;22.00;;;9.70;;
67757;SDS011;54562;47.620;18.786;2022-11-21T07:22:27;24.00;;;10.80;;
67757;SDS011;54562;47.620;18.786;2022-11-21T07:25:35;19.70;;;9.40;;
67757;SDS011;54562;47.620;18.786;2022-11-21T07:28:44;21.00;;;10.10;;
67757;SDS011;54562;47.620;18.786;2022-11-21T07:31:53;23.60;;;9.10;;
67757;SDS011;54562;47.620;18.786;2022-11-21T07:35:01;18.80;;;9.20;;
67757;SDS011;54562;47.620;18.786;2022-11-21T07:38:10;16.10;;;8.60;;
67757;SDS011;54562;47.620;18.786;2022-11-21T07:41:17;17.90;;;9.20;;
67757;SDS011;54562;47.620;18.786;2022-11-21T07:44:25;17.50;;;8.50;;
67757;SDS011;54562;47.620;18.786;2022-11-21T07:47:33;16.40;;;8.60;;
67757;SDS011;54562;47.620;18.786;2022-11-21T07:50:42;19.20;;;9.00;;
67757;SDS011;54562;47.620;18.786;2022-11-21T07:53:50;19.50;;;8.60;;
67757;SDS011;54562;47.620;18.786;2022-11-21T07:56:58;20.00;;;10.60;;
67757;SDS011;54562;47.620;18.786;2022-11-21T08:00:09;24.50;;;10.40;;
67757;SDS011;54562;47.620;18.786;2022-11-21T08:03:18;22.10;;;9.70;;
67757;SDS011;54562;47.620;18.786;2022-11-21T08:06:28;18.00;;;8.70;;
67757;SDS011;54562;47.620;18.786;2022-11-21T08:09:37;18.40;;;9.00;;
67757;SDS011;54562;47.620;18.786;2022-11-21T08:12:45;20.80;;;10.10;;
67757;SDS011;54562;47.620;18.786;2022-11-21T08:15:54;21.90;;;8.00;;
67757;SDS011;54562;47.620;18.786;2022-11-21T08:19:02;12.50;;;6.60;;
67757;SDS011;54562;47.620;18.786;2022-11-21T08:22:10;21.80;;;10.30;;
67757;SDS011;54562;47.620;18.786;2022-11-21T08:25:18;17.30;;;8.60;;
67757;SDS011;54562;47.620;18.786;2022-11-21T08:28:27;29.70;;;11.20;;
67757;SDS011;54562;47.620;18.786;2022-11-21T08:31:34;24.60;;;11.10;;
67757;SDS011;54562;47.620;18.786;2022-11-21T08:34:43;21.90;;;11.40;;
67757;SDS011;54562;47.620;18.786;2022-11-21T08:37:56;24.10;;;12.30;;
67757;SDS011;54562;47.620;18.786;2022-11-21T08:41:05;29.60;;;12.00;;
67757;SDS011;54562;47.620;18.786;2022-11-21T08:44:32;25.70;;;12.30;;
67757;SDS011;54562;47.620;18.786;2022-11-21T08:47:40;27.70;;;12.50;;
67757;SDS011;54562;47.620;18.786;2022-11-21T08:50:48;28.20;;;11.90;;
67757;SDS011;54562;47.620;18.786;2022-11-21T08:53:56;33.60;;;13.40;;
67757;SDS011;54562;47.620;18.786;2022-11-21T08:57:04;27.50;;;12.20;;
67757;SDS011;54562;47.620;18.786;2022-11-21T09:00:14;27.00;;;12.00;;
67757;SDS011;54562;47.620;18.786;2022-11-21T09:03:24;29.30;;;11.80;;
67757;SDS011;54562;47.620;18.786;2022-11-21T09:06:35;26.90;;;11.70;;
67757;SDS011;54562;47.620;18.786;2022-11-21T09:09:43;26.30;;;12.20;;
67757;SDS011;54562;47.620;18.786;2022-11-21T09:12:51;32.60;;;12.20;;
67757;SDS011;54562;47.620;18.786;2022-11-21T09:16:02;25.80;;;11.80;;
67757;SDS011;54562;47.620;18.786;2022-11-21T09:19:28;25.30;;;11.90;;
67757;SDS011;54562;47.620;18.786;2022-11-21T09:22:36;27.80;;;11.60;;
67757;SDS011;54562;47.620;18.786;2022-11-21T09:25:45;27.30;;;11.70;;
67757;SDS011;54562;47.620;18.786;2022-11-21T09:28:53;28.00;;;12.70;;
67757;SDS011;54562;47.620;18.786;2022-11-21T09:32:01;25.60;;;11.20;;
67757;SDS011;54562;47.620;18.786;2022-11-21T09:35:09;22.10;;;10.70;;
67757;SDS011;54562;47.620;18.786;2022-11-21T09:38:17;23.20;;;10.80;;
67757;SDS011;54562;47.620;18.786;2022-11-21T09:41:33;26.40;;;12.20;;
67757;SDS011;54562;47.620;18.786;2022-11-21T09:45:05;26.50;;;11.30;;
67757;SDS011;54562;47.620;18.786;2022-11-21T09:48:18;30.70;;;10.90;;
67757;SDS011;54562;47.620;18.786;2022-11-21T09:51:31;24.40;;;11.80;;
67757;SDS011;54562;47.620;18.786;2022-11-21T09:54:48;25.00;;;11.70;;
67757;SDS011;54562;47.620;18.786;2022-11-21T09:58:02;20.40;;;10.60;;
67757;SDS011;54562;47.620;18.786;2022-11-21T10:01:15;22.30;;;9.80;;
67757;SDS011;54562;47.620;18.786;2022-11-21T10:04:24;19.10;;;9.60;;
67757;SDS011;54562;47.620;18.786;2022-11-21T10:07:35;21.50;;;9.90;;
67757;SDS011;54562;47.620;18.786;2022-11-21T10:10:54;14.90;;;8.10;;
67757;SDS011;54562;47.620;18.786;2022-11-21T10:14:20;18.90;;;9.40;;
67757;SDS011;54562;47.620;18.786;2022-11-21T10:17:39;18.00;;;8.80;;
67757;SDS011;54562;47.620;18.786;2022-11-21T10:21:01;17.60;;;8.20;;
67757;SDS011;54562;47.620;18.786;2022-11-21T10:24:39;20.20;;;11.10;;
67757;SDS011;54562;47.620;18.786;2022-11-21T10:27:56;18.50;;;9.60;;
67757;SDS011;54562;47.620;18.786;2022-11-21T10:31:09;18.60;;;9.80;;
67757;SDS011;54562;47.620;18.786;2022-11-21T10:34:24;18.10;;;9.50;;
67757;SDS011;54562;47.620;18.786;2022-11-21T10:37:37;18.80;;;10.20;;
67757;SDS011;54562;47.620;18.786;2022-11-21T10:40:51;18.80;;;9.90;;
67757;SDS011;54562;47.620;18.786;2022-11-21T10:44:13;21.10;;;11.50;;
67757;SDS011;54562;47.620;18.786;2022-11-21T10:47:46;20.50;;;10.80;;
67757;SDS011;54562;47.620;18.786;2022-11-21T10:51:21;22.00;;;11.20;;
67757;SDS011;54562;47.620;18.786;2022-11-21T10:58:27;26.40;;;13.10;;
67757;SDS011;54562;47.620;18.786;2022-11-21T11:01:40;23.00;;;11.70;;
67757;SDS011;54562;47.620;18.786;2022-11-21T11:05:21;17.50;;;8.80;;
67757;SDS011;54562;47.620;18.786;2022-11-21T11:08:49;23.60;;;11.90;;
67757;SDS011;54562;47.620;18.786;2022-11-21T11:12:20;20.40;;;11.80;;
67757;SDS011;54562;47.620;18.786;2022-11-21T11:16:05;21.70;;;11.40;;
67757;SDS011;54562;47.620;18.786;2022-11-21T11:19:25;21.50;;;11.20;;
67757;SDS011;54562;47.620;18.786;2022-11-21T11:22:43;21.10;;;12.20;;
67757;SDS011;54562;47.620;18.786;2022-11-21T11:25:53;31.40;;;14.70;;
67757;SDS011;54562;47.620;18.786;2022-11-21T11:29:12;26.60;;;14.80;;
67757;SDS011;54562;47.620;18.786;2022-11-21T11:32:23;21.30;;;11.90;;
67757;SDS011;54562;47.620;18.786;2022-11-21T11:35:34;21.50;;;12.10;;
67757;SDS011;54562;47.620;18.786;2022-11-21T11:38:51;21.10;;;11.80;;
67757;SDS011;54562;47.620;18.786;2022-11-21T11:42:22;25.60;;;12.30;;
67757;SDS011;54562;47.620;18.786;2022-11-21T11:46:25;24.90;;;12.90;;
67757;SDS011;54562;47.620;18.786;2022-11-21T11:50:02;22.10;;;12.30;;
67757;SDS011;54562;47.620;18.786;2022-11-21T11:53:21;22.80;;;11.70;;
67757;SDS011;54562;47.620;18.786;2022-11-21T11:56:33;25.30;;;14.40;;
67757;SDS011;54562;47.620;18.786;2022-11-21T11:59:45;40.60;;;18.40;;
67757;SDS011;54562;47.620;18.786;2022-11-21T12:03:12;25.50;;;13.70;;
67757;SDS011;54562;47.620;18.786;2022-11-21T12:06:26;31.80;;;15.60;;
67757;SDS011;54562;47.620;18.786;2022-11-21T12:10:03;24.90;;;13.90;;
67757;SDS011;54562;47.620;18.786;2022-11-21T12:13:18;31.00;;;15.70;;
67757;SDS011;54562;47.620;18.786;2022-11-21T12:16:27;27.90;;;14.10;;
67757;SDS011;54562;47.620;18.786;2022-11-21T12:19:37;31.40;;;14.80;;
67757;SDS011;54562;47.620;18.786;2022-11-21T12:22:47;32.20;;;15.10;;
67757;SDS011;54562;47.620;18.786;2022-11-21T12:26:07;28.70;;;14.60;;
67757;SDS011;54562;47.620;18.786;2022-11-21T12:29:34;24.30;;;13.50;;
67757;SDS011;54562;47.620;18.786;2022-11-21T12:33:03;26.00;;;13.50;;
67757;SDS011;54562;47.620;18.786;2022-11-21T12:36:23;21.20;;;12.00;;
67757;SDS011;54562;47.620;18.786;2022-11-21T12:39:56;24.60;;;12.40;;
67757;SDS011;54562;47.620;18.786;2022-11-21T12:43:19;29.60;;;14.70;;
67757;SDS011;54562;47.620;18.786;2022-11-21T12:49:46;24.90;;;13.40;;
67757;SDS011;54562;47.620;18.786;2022-11-21T12:53:23;26.50;;;14.50;;
67757;SDS011;54562;47.620;18.786;2022-11-21T12:56:59;22.00;;;12.60;;
67757;SDS011;54562;47.620;18.786;2022-11-21T13:00:19;24.90;;;13.80;;
67757;SDS011;54562;47.620;18.786;2022-11-21T13:03:40;25.40;;;13.70;;
67757;SDS011;54562;47.620;18.786;2022-11-21T13:06:53;21.60;;;11.30;;
67757;SDS011;54562;47.620;18.786;2022-11-21T13:10:09;23.10;;;11.30;;
67757;SDS011;54562;47.620;18.786;2022-11-21T13:13:24;21.20;;;10.60;;
67757;SDS011;54562;47.620;18.786;2022-11-21T13:16:39;17.10;;;10.60;;
67757;SDS011;54562;47.620;18.786;2022-11-21T13:19:56;19.30;;;10.80;;
67757;SDS011;54562;47.620;18.786;2022-11-21T13:23:37;18.20;;;10.70;;
67757;SDS011;54562;47.620;18.786;2022-11-21T13:26:53;18.30;;;10.10;;
67757;SDS011;54562;47.620;18.786;2022-11-21T13:30:22;17.30;;;9.10;;
67757;SDS011;54562;47.620;18.786;2022-11-21T13:33:48;15.60;;;9.50;;
67757;SDS011;54562;47.620;18.786;2022-11-21T13:36:57;14.70;;;8.50;;
67757;SDS011;54562;47.620;18.786;2022-11-21T13:40:35;16.00;;;8.50;;
67757;SDS011;54562;47.620;18.786;2022-11-21T13:44:35;17.70;;;9.20;;
67757;SDS011;54562;47.620;18.786;2022-11-21T13:51:56;20.10;;;12.00;;
67757;SDS011;54562;47.620;18.786;2022-11-21T13:55:16;20.20;;;11.00;;
67757;SDS011;54562;47.620;18.786;2022-11-21T13:58:51;19.40;;;11.00;;
67757;SDS011;54562;47.620;18.786;2022-11-21T14:02:21;19.20;;;10.80;;
67757;SDS011;54562;47.620;18.786;2022-11-21T14:06:06;19.30;;;10.90;;
67757;SDS011;54562;47.620;18.786;2022-11-21T14:09:27;20.00;;;10.40;;
67757;SDS011;54562;47.620;18.786;2022-11-21T14:12:41;15.60;;;8.30;;
67757;SDS011;54562;47.620;18.786;2022-11-21T14:16:03;18.70;;;10.60;;
67757;SDS011;54562;47.620;18.786;2022-11-21T14:19:20;17.70;;;9.80;;
67757;SDS011;54562;47.620;18.786;2022-11-21T14:22:33;22.40;;;12.30;;
67757;SDS011;54562;47.620;18.786;2022-11-21T14:25:51;25.00;;;13.00;;
67757;SDS011;54562;47.620;18.786;2022-11-21T14:29:18;22.30;;;14.00;;
67757;SDS011;54562;47.620;18.786;2022-11-21T14:32:32;35.10;;;21.60;;
67757;SDS011;54562;47.620;18.786;2022-11-21T14:35:40;19.30;;;12.20;;
67757;SDS011;54562;47.620;18.786;2022-11-21T14:38:53;19.30;;;11.30;;
67757;SDS011;54562;47.620;18.786;2022-11-21T14:42:32;18.30;;;10.20;;
67757;SDS011;54562;47.620;18.786;2022-11-21T14:45:49;19.10;;;10.40;;
67757;SDS011;54562;47.620;18.786;2022-11-21T14:49:03;20.70;;;12.90;;
67757;SDS011;54562;47.620;18.786;2022-11-21T14:52:25;20.90;;;12.50;;
67757;SDS011;54562;47.620;18.786;2022-11-21T14:55:35;20.90;;;12.50;;
67757;SDS011;54562;47.620;18.786;2022-11-21T14:58:43;20.60;;;11.30;;
67757;SDS011;54562;47.620;18.786;2022-11-21T15:02:01;17.90;;;11.30;;
67757;SDS011;54562;47.620;18.786;2022-11-21T15:05:16;23.30;;;13.30;;
67757;SDS011;54562;47.620;18.786;2022-11-21T15:08:45;25.70;;;14.80;;
67757;SDS011;54562;47.620;18.786;2022-11-21T15:12:18;21.50;;;12.90;;
67757;SDS011;54562;47.620;18.786;2022-11-21T15:15:33;23.40;;;13.40;;
67757;SDS011;54562;47.620;18.786;2022-11-21T15:18:44;24.20;;;12.90;;
67757;SDS011;54562;47.620;18.786;2022-11-21T15:21:54;19.60;;;11.40;;
67757;SDS011;54562;47.620;18.786;2022-11-21T15:25:18;20.00;;;11.40;;
67757;SDS011;54562;47.620;18.786;2022-11-21T15:28:29;25.00;;;15.50;;
67757;SDS011;54562;47.620;18.786;2022-11-21T15:31:37;30.20;;;16.00;;
67757;SDS011;54562;47.620;18.786;2022-11-21T15:34:47;37.00;;;24.80;;
67757;SDS011;54562;47.620;18.786;2022-11-21T15:37:55;25.40;;;16.70;;
67757;SDS011;54562;47.620;18.786;2022-11-21T15:41:24;22.70;;;13.80;;
67757;SDS011;54562;47.620;18.786;2022-11-21T15:44:35;23.20;;;12.70;;
67757;SDS011;54562;47.620;18.786;2022-11-21T15:47:43;23.30;;;12.60;;
67757;SDS011;54562;47.620;18.786;2022-11-21T15:50:51;21.60;;;13.20;;
67757;SDS011;54562;47.620;18.786;2022-11-21T15:54:03;18.30;;;11.10;;
67757;SDS011;54562;47.620;18.786;2022-11-21T15:57:12;19.60;;;11.50;;
67757;SDS011;54562;47.620;18.786;2022-11-21T16:00:28;19.90;;;11.40;;
67757;SDS011;54562;47.620;18.786;2022-11-21T16:03:37;22.20;;;12.20;;
67757;SDS011;54562;47.620;18.786;2022-11-21T16:06:47;17.50;;;10.70;;
67757;SDS011;54562;47.620;18.786;2022-11-21T16:09:57;22.60;;;12.90;;
67757;SDS011;54562;47.620;18.786;2022-11-21T16:13:05;22.90;;;12.30;;
67757;SDS011;54562;47.620;18.786;2022-11-21T16:16:15;20.00;;;11.50;;
67757;SDS011;54562;47.620;18.786;2022-11-21T16:19:23;22.40;;;11.50;;
67757;SDS011;54562;47.620;18.786;2022-11-21T16:22:33;20.70;;;12.40;;
67757;SDS011;54562;47.620;18.786;2022-11-21T16:25:55;19.70;;;11.70;;
67757;SDS011;54562;47.620;18.786;2022-11-21T16:29:03;20.20;;;10.90;;
67757;SDS011;54562;47.620;18.786;2022-11-21T16:32:12;18.90;;;10.70;;
67757;SDS011;54562;47.620;18.786;2022-11-21T16:35:20;19.30;;;11.20;;
67757;SDS011;54562;47.620;18.786;2022-11-21T16:38:29;20.20;;;10.30;;
67757;SDS011;54562;47.620;18.786;2022-11-21T16:41:37;16.80;;;9.30;;
67757;SDS011;54562;47.620;18.786;2022-11-21T16:44:45;19.00;;;10.20;;
67757;SDS011;54562;47.620;18.786;2022-11-21T16:47:53;16.70;;;9.40;;
67757;SDS011;54562;47.620;18.786;2022-11-21T16:51:09;20.30;;;11.20;;
67757;SDS011;54562;47.620;18.786;2022-11-21T16:54:18;18.50;;;10.00;;
67757;SDS011;54562;47.620;18.786;2022-11-21T16:57:26;20.70;;;8.20;;
67757;SDS011;54562;47.620;18.786;2022-11-21T17:00:34;22.50;;;8.30;;
67757;SDS011;54562;47.620;18.786;2022-11-21T17:03:44;19.10;;;8.10;;
67757;SDS011;54562;47.620;18.786;2022-11-21T17:06:53;16.60;;;8.20;;
67757;SDS011;54562;47.620;18.786;2022-11-21T17:10:01;21.50;;;8.30;;
67757;SDS011;54562;47.620;18.786;2022-11-21T17:13:09;24.30;;;8.60;;
67757;SDS011;54562;47.620;18.786;2022-11-21T17:16:19;30.40;;;9.90;;
67757;SDS011;54562;47.620;18.786;2022-11-21T17:19:28;16.70;;;6.60;;
67757;SDS011;54562;47.620;18.786;2022-11-21T17:22:36;21.50;;;8.40;;
67757;SDS011;54562;47.620;18.786;2022-11-21T17:25:44;32.70;;;8.10;;
67757;SDS011;54562;47.620;18.786;2022-11-21T17:28:54;29.50;;;7.90;;
67757;SDS011;54562;47.620;18.786;2022-11-21T17:32:03;23.70;;;7.80;;
67757;SDS011;54562;47.620;18.786;2022-11-21T17:35:11;31.70;;;8.70;;
67757;SDS011;54562;47.620;18.786;2022-11-21T17:38:19;45.00;;;10.80;;
67757;SDS011;54562;47.620;18.786;2022-11-21T17:41:27;33.90;;;11.40;;
67757;SDS011;54562;47.620;18.786;2022-11-21T17:44:37;34.70;;;11.00;;
67757;SDS011;54562;47.620;18.786;2022-11-21T17:47:45;39.10;;;9.80;;
67757;SDS011;54562;47.620;18.786;2022-11-21T17:51:00;43.40;;;9.40;;
67757;SDS011;54562;47.620;18.786;2022-11-21T17:54:09;30.20;;;8.40;;
67757;SDS011;54562;47.620;18.786;2022-11-21T17:57:18;34.80;;;8.90;;
67757;SDS011;54562;47.620;18.786;2022-11-21T18:00:26;28.30;;;9.40;;
67757;SDS011;54562;47.620;18.786;2022-11-21T18:03:34;36.10;;;9.20;;
67757;SDS011;54562;47.620;18.786;2022-11-21T18:06:42;32.80;;;9.30;;
67757;SDS011;54562;47.620;18.786;2022-11-21T18:09:51;28.80;;;8.60;;
67757;SDS011;54562;47.620;18.786;2022-11-21T18:13:13;32.40;;;11.60;;
67757;SDS011;54562;47.620;18.786;2022-11-21T18:16:23;29.50;;;8.50;;
67757;SDS011;54562;47.620;18.786;2022-11-21T18:19:33;22.80;;;13.50;;
67757;SDS011;54562;47.620;18.786;2022-11-21T18:22:41;31.30;;;10.70;;
67757;SDS011;54562;47.620;18.786;2022-11-21T18:25:52;30.50;;;11.10;;
67757;SDS011;54562;47.620;18.786;2022-11-21T18:29:01;37.60;;;13.60;;
67757;SDS011;54562;47.620;18.786;2022-11-21T18:32:31;21.20;;;9.30;;
67757;SDS011;54562;47.620;18.786;2022-11-21T18:35:39;32.90;;;11.20;;
67757;SDS011;54562;47.620;18.786;2022-11-21T18:38:50;27.50;;;10.80;;
67757;SDS011;54562;47.620;18.786;2022-11-21T18:42:09;22.30;;;10.50;;
67757;SDS011;54562;47.620;18.786;2022-11-21T18:45:17;24.00;;;9.70;;
67757;SDS011;54562;47.620;18.786;2022-11-21T18:48:25;31.00;;;11.00;;
67757;SDS011;54562;47.620;18.786;2022-11-21T18:51:53;26.60;;;11.50;;
67757;SDS011;54562;47.620;18.786;2022-11-21T18:55:02;24.10;;;11.80;;